sensor_id;sensor_type;location;lat;lon;timestamp;P1;durP1;ratioP1;P2;durP2;ratioP2
35188;SDS011;21762;54.480;18.556;2022-12-29T00:01:11;10.82;;;6.32;;
35188;SDS011;21762;54.480;18.556;2022-12-29T00:03:39;14.18;;;6.78;;
35188;SDS011;21762;54.480;18.556;2022-12-29T00:06:09;10.25;;;6.45;;
35188;SDS011;21762;54.480;18.556;2022-12-29T00:08:38;10.43;;;6.20;;
35188;SDS011;21762;54.480;18.556;2022-12-29T00:11:10;11.85;;;5.90;;
35188;SDS011;21762;54.480;18.556;2022-12-29T00:13:39;9.85;;;5.90;;
35188;SDS011;21762;54.480;18.556;2022-12-29T00:16:25;11.52;;;6.25;;
35188;SDS011;21762;54.480;18.556;2022-12-29T00:18:54;10.10;;;6.40;;
35188;SDS011;21762;54.480;18.556;2022-12-29T00:21:24;12.90;;;7.13;;
35188;SDS011;21762;54.480;18.556;2022-12-29T00:24:12;9.02;;;5.75;;
35188;SDS011;21762;54.480;18.556;2022-12-29T00:27:07;9.25;;;5.82;;
35188;SDS011;21762;54.480;18.556;2022-12-29T00:29:56;8.55;;;5.65;;
35188;SDS011;21762;54.480;18.556;2022-12-29T00:32:42;8.45;;;5.57;;
35188;SDS011;21762;54.480;18.556;2022-12-29T00:35:29;7.80;;;5.20;;
35188;SDS011;21762;54.480;18.556;2022-12-29T00:38:01;13.05;;;5.97;;
35188;SDS011;21762;54.480;18.556;2022-12-29T00:40:48;9.55;;;5.72;;
35188;SDS011;21762;54.480;18.556;2022-12-29T00:43:34;8.82;;;5.05;;
35188;SDS011;21762;54.480;18.556;2022-12-29T00:46:20;8.30;;;5.35;;
35188;SDS011;21762;54.480;18.556;2022-12-29T00:48:48;6.65;;;4.78;;
35188;SDS011;21762;54.480;18.556;2022-12-29T00:51:34;9.13;;;5.50;;
35188;SDS011;21762;54.480;18.556;2022-12-29T00:54:04;10.50;;;5.53;;
35188;SDS011;21762;54.480;18.556;2022-12-29T00:56:33;10.45;;;5.60;;
35188;SDS011;21762;54.480;18.556;2022-12-29T00:59:01;7.82;;;4.75;;
35188;SDS011;21762;54.480;18.556;2022-12-29T01:01:30;8.75;;;5.57;;
35188;SDS011;21762;54.480;18.556;2022-12-29T01:03:59;7.30;;;5.20;;
35188;SDS011;21762;54.480;18.556;2022-12-29T01:06:30;8.80;;;5.00;;
35188;SDS011;21762;54.480;18.556;2022-12-29T01:08:59;6.97;;;4.07;;
35188;SDS011;21762;54.480;18.556;2022-12-29T01:11:46;7.13;;;4.35;;
35188;SDS011;21762;54.480;18.556;2022-12-29T01:14:15;6.95;;;4.68;;
35188;SDS011;21762;54.480;18.556;2022-12-29T01:16:43;6.43;;;4.22;;
35188;SDS011;21762;54.480;18.556;2022-12-29T01:19:12;8.52;;;4.05;;
35188;SDS011;21762;54.480;18.556;2022-12-29T01:21:41;4.55;;;3.60;;
35188;SDS011;21762;54.480;18.556;2022-12-29T01:24:09;7.70;;;4.18;;
35188;SDS011;21762;54.480;18.556;2022-12-29T01:26:38;5.40;;;3.85;;
35188;SDS011;21762;54.480;18.556;2022-12-29T01:29:08;4.45;;;3.50;;
35188;SDS011;21762;54.480;18.556;2022-12-29T01:31:36;5.63;;;3.60;;
35188;SDS011;21762;54.480;18.556;2022-12-29T01:34:05;6.88;;;4.03;;
35188;SDS011;21762;54.480;18.556;2022-12-29T01:36:33;6.00;;;3.50;;
35188;SDS011;21762;54.480;18.556;2022-12-29T01:39:02;8.55;;;3.65;;
35188;SDS011;21762;54.480;18.556;2022-12-29T01:41:31;5.28;;;3.47;;
35188;SDS011;21762;54.480;18.556;2022-12-29T01:44:01;5.63;;;2.97;;
35188;SDS011;21762;54.480;18.556;2022-12-29T01:46:32;4.57;;;3.33;;
35188;SDS011;21762;54.480;18.556;2022-12-29T01:49:05;3.92;;;3.20;;
35188;SDS011;21762;54.480;18.556;2022-12-29T01:51:38;4.65;;;3.08;;
35188;SDS011;21762;54.480;18.556;2022-12-29T01:54:09;6.93;;;3.72;;
35188;SDS011;21762;54.480;18.556;2022-12-29T01:56:40;5.70;;;2.75;;
35188;SDS011;21762;54.480;18.556;2022-12-29T01:59:10;5.32;;;3.20;;
35188;SDS011;21762;54.480;18.556;2022-12-29T02:01:43;4.65;;;3.45;;
35188;SDS011;21762;54.480;18.556;2022-12-29T02:04:12;4.95;;;3.55;;
35188;SDS011;21762;54.480;18.556;2022-12-29T02:06:41;3.58;;;2.78;;
35188;SDS011;21762;54.480;18.556;2022-12-29T02:09:14;3.00;;;2.70;;
35188;SDS011;21762;54.480;18.556;2022-12-29T02:11:43;4.28;;;2.92;;
35188;SDS011;21762;54.480;18.556;2022-12-29T02:14:11;3.25;;;2.53;;
35188;SDS011;21762;54.480;18.556;2022-12-29T02:16:45;3.67;;;2.25;;
35188;SDS011;21762;54.480;18.556;2022-12-29T02:19:36;2.20;;;2.00;;
35188;SDS011;21762;54.480;18.556;2022-12-29T02:22:18;4.97;;;2.55;;
35188;SDS011;21762;54.480;18.556;2022-12-29T02:25:04;3.20;;;2.40;;
35188;SDS011;21762;54.480;18.556;2022-12-29T02:27:44;3.75;;;2.38;;
35188;SDS011;21762;54.480;18.556;2022-12-29T02:30:30;4.00;;;2.40;;
35188;SDS011;21762;54.480;18.556;2022-12-29T02:33:04;3.78;;;2.10;;
35188;SDS011;21762;54.480;18.556;2022-12-29T02:35:41;4.38;;;1.98;;
35188;SDS011;21762;54.480;18.556;2022-12-29T02:38:15;3.65;;;2.40;;
35188;SDS011;21762;54.480;18.556;2022-12-29T02:40:51;4.45;;;2.05;;
35188;SDS011;21762;54.480;18.556;2022-12-29T02:43:22;5.15;;;2.30;;
35188;SDS011;21762;54.480;18.556;2022-12-29T02:45:56;5.30;;;2.22;;
35188;SDS011;21762;54.480;18.556;2022-12-29T02:48:28;2.67;;;2.20;;
35188;SDS011;21762;54.480;18.556;2022-12-29T02:50:59;4.38;;;2.75;;
35188;SDS011;21762;54.480;18.556;2022-12-29T02:53:29;3.58;;;2.83;;
35188;SDS011;21762;54.480;18.556;2022-12-29T02:56:18;8.05;;;3.28;;
35188;SDS011;21762;54.480;18.556;2022-12-29T02:58:46;4.78;;;3.70;;
35188;SDS011;21762;54.480;18.556;2022-12-29T03:01:29;5.43;;;3.03;;
35188;SDS011;21762;54.480;18.556;2022-12-29T03:04:15;4.63;;;3.35;;
35188;SDS011;21762;54.480;18.556;2022-12-29T03:06:52;4.65;;;3.00;;
35188;SDS011;21762;54.480;18.556;2022-12-29T03:09:26;3.70;;;2.60;;
35188;SDS011;21762;54.480;18.556;2022-12-29T03:11:59;3.08;;;1.98;;
35188;SDS011;21762;54.480;18.556;2022-12-29T03:14:41;5.35;;;1.92;;
35188;SDS011;21762;54.480;18.556;2022-12-29T03:17:35;6.78;;;2.60;;
35188;SDS011;21762;54.480;18.556;2022-12-29T03:20:09;3.45;;;2.22;;
35188;SDS011;21762;54.480;18.556;2022-12-29T03:22:41;3.03;;;2.25;;
35188;SDS011;21762;54.480;18.556;2022-12-29T03:25:17;3.28;;;2.30;;
35188;SDS011;21762;54.480;18.556;2022-12-29T03:27:49;3.88;;;2.28;;
35188;SDS011;21762;54.480;18.556;2022-12-29T03:30:19;3.80;;;2.53;;
35188;SDS011;21762;54.480;18.556;2022-12-29T03:32:50;3.33;;;2.45;;
35188;SDS011;21762;54.480;18.556;2022-12-29T03:35:23;6.78;;;2.70;;
35188;SDS011;21762;54.480;18.556;2022-12-29T03:40:23;2.38;;;2.05;;
35188;SDS011;21762;54.480;18.556;2022-12-29T03:42:53;5.63;;;2.90;;
35188;SDS011;21762;54.480;18.556;2022-12-29T03:45:22;6.57;;;2.92;;
35188;SDS011;21762;54.480;18.556;2022-12-29T03:47:52;5.70;;;3.00;;
35188;SDS011;21762;54.480;18.556;2022-12-29T03:50:22;4.18;;;2.72;;
35188;SDS011;21762;54.480;18.556;2022-12-29T03:52:50;4.25;;;2.83;;
35188;SDS011;21762;54.480;18.556;2022-12-29T03:55:19;4.75;;;2.47;;
35188;SDS011;21762;54.480;18.556;2022-12-29T03:57:47;3.58;;;2.58;;
35188;SDS011;21762;54.480;18.556;2022-12-29T04:00:22;4.13;;;2.45;;
35188;SDS011;21762;54.480;18.556;2022-12-29T04:02:53;5.03;;;2.90;;
35188;SDS011;21762;54.480;18.556;2022-12-29T04:05:22;4.88;;;3.13;;
35188;SDS011;21762;54.480;18.556;2022-12-29T04:07:53;3.67;;;2.72;;
35188;SDS011;21762;54.480;18.556;2022-12-29T04:10:22;3.90;;;3.15;;
35188;SDS011;21762;54.480;18.556;2022-12-29T04:15:22;5.43;;;3.17;;
35188;SDS011;21762;54.480;18.556;2022-12-29T04:17:54;5.65;;;3.50;;
35188;SDS011;21762;54.480;18.556;2022-12-29T04:20:23;4.07;;;3.15;;
35188;SDS011;21762;54.480;18.556;2022-12-29T04:23:09;5.47;;;3.38;;
35188;SDS011;21762;54.480;18.556;2022-12-29T04:25:37;5.65;;;3.78;;
35188;SDS011;21762;54.480;18.556;2022-12-29T04:28:08;7.45;;;4.13;;
35188;SDS011;21762;54.480;18.556;2022-12-29T04:30:48;6.22;;;4.40;;
35188;SDS011;21762;54.480;18.556;2022-12-29T04:33:21;9.73;;;5.10;;
35188;SDS011;21762;54.480;18.556;2022-12-29T04:35:50;8.50;;;4.78;;
35188;SDS011;21762;54.480;18.556;2022-12-29T04:38:20;8.10;;;5.20;;
35188;SDS011;21762;54.480;18.556;2022-12-29T04:40:50;8.82;;;5.57;;
35188;SDS011;21762;54.480;18.556;2022-12-29T04:43:21;11.80;;;6.35;;
35188;SDS011;21762;54.480;18.556;2022-12-29T04:46:16;8.15;;;5.75;;
35188;SDS011;21762;54.480;18.556;2022-12-29T04:49:06;11.80;;;6.28;;
35188;SDS011;21762;54.480;18.556;2022-12-29T04:51:47;9.18;;;7.00;;
35188;SDS011;21762;54.480;18.556;2022-12-29T04:54:17;10.73;;;6.47;;
35188;SDS011;21762;54.480;18.556;2022-12-29T04:56:55;13.60;;;7.22;;
35188;SDS011;21762;54.480;18.556;2022-12-29T04:59:23;13.88;;;7.30;;
35188;SDS011;21762;54.480;18.556;2022-12-29T05:01:56;14.40;;;8.75;;
35188;SDS011;21762;54.480;18.556;2022-12-29T05:04:26;12.20;;;8.20;;
35188;SDS011;21762;54.480;18.556;2022-12-29T05:06:54;13.63;;;8.15;;
35188;SDS011;21762;54.480;18.556;2022-12-29T05:09:23;12.45;;;8.18;;
35188;SDS011;21762;54.480;18.556;2022-12-29T05:11:52;16.67;;;8.93;;
35188;SDS011;21762;54.480;18.556;2022-12-29T05:14:20;14.23;;;8.75;;
35188;SDS011;21762;54.480;18.556;2022-12-29T05:16:49;15.52;;;8.70;;
35188;SDS011;21762;54.480;18.556;2022-12-29T05:19:38;11.27;;;8.38;;
35188;SDS011;21762;54.480;18.556;2022-12-29T05:22:07;15.75;;;9.75;;
35188;SDS011;21762;54.480;18.556;2022-12-29T05:24:37;15.30;;;9.55;;
35188;SDS011;21762;54.480;18.556;2022-12-29T05:27:05;15.27;;;9.00;;
35188;SDS011;21762;54.480;18.556;2022-12-29T05:29:45;13.98;;;9.70;;
35188;SDS011;21762;54.480;18.556;2022-12-29T05:32:13;15.20;;;9.85;;
35188;SDS011;21762;54.480;18.556;2022-12-29T05:34:44;15.23;;;8.95;;
35188;SDS011;21762;54.480;18.556;2022-12-29T05:37:13;14.15;;;8.77;;
35188;SDS011;21762;54.480;18.556;2022-12-29T05:39:41;15.35;;;9.52;;
35188;SDS011;21762;54.480;18.556;2022-12-29T05:42:10;15.82;;;8.98;;
35188;SDS011;21762;54.480;18.556;2022-12-29T05:45:08;13.80;;;9.05;;
35188;SDS011;21762;54.480;18.556;2022-12-29T05:47:55;18.83;;;8.90;;
35188;SDS011;21762;54.480;18.556;2022-12-29T05:50:44;12.35;;;8.82;;
35188;SDS011;21762;54.480;18.556;2022-12-29T05:53:17;15.98;;;9.15;;
35188;SDS011;21762;54.480;18.556;2022-12-29T05:55:46;12.90;;;9.35;;
35188;SDS011;21762;54.480;18.556;2022-12-29T05:58:16;14.15;;;9.13;;
35188;SDS011;21762;54.480;18.556;2022-12-29T06:00:46;15.10;;;9.20;;
35188;SDS011;21762;54.480;18.556;2022-12-29T06:03:15;17.05;;;8.80;;
35188;SDS011;21762;54.480;18.556;2022-12-29T06:05:45;11.50;;;8.10;;
35188;SDS011;21762;54.480;18.556;2022-12-29T06:08:15;12.07;;;7.97;;
35188;SDS011;21762;54.480;18.556;2022-12-29T06:10:44;14.73;;;10.00;;
35188;SDS011;21762;54.480;18.556;2022-12-29T06:13:13;11.63;;;8.65;;
35188;SDS011;21762;54.480;18.556;2022-12-29T06:15:43;14.75;;;9.10;;
35188;SDS011;21762;54.480;18.556;2022-12-29T06:18:12;14.05;;;9.05;;
35188;SDS011;21762;54.480;18.556;2022-12-29T06:20:46;16.58;;;8.68;;
35188;SDS011;21762;54.480;18.556;2022-12-29T06:23:17;13.40;;;8.45;;
35188;SDS011;21762;54.480;18.556;2022-12-29T06:25:46;13.52;;;8.82;;
35188;SDS011;21762;54.480;18.556;2022-12-29T06:28:16;14.90;;;8.98;;
35188;SDS011;21762;54.480;18.556;2022-12-29T06:30:45;14.20;;;8.20;;
35188;SDS011;21762;54.480;18.556;2022-12-29T06:33:14;17.23;;;8.70;;
35188;SDS011;21762;54.480;18.556;2022-12-29T06:35:43;13.85;;;8.77;;
35188;SDS011;21762;54.480;18.556;2022-12-29T06:38:15;16.60;;;8.88;;
35188;SDS011;21762;54.480;18.556;2022-12-29T06:40:44;15.25;;;8.48;;
35188;SDS011;21762;54.480;18.556;2022-12-29T06:43:19;13.70;;;8.15;;
35188;SDS011;21762;54.480;18.556;2022-12-29T06:46:06;12.52;;;8.57;;
35188;SDS011;21762;54.480;18.556;2022-12-29T06:48:34;12.93;;;8.32;;
35188;SDS011;21762;54.480;18.556;2022-12-29T06:51:03;13.02;;;7.55;;
35188;SDS011;21762;54.480;18.556;2022-12-29T06:53:33;14.13;;;8.73;;
35188;SDS011;21762;54.480;18.556;2022-12-29T06:56:02;10.82;;;7.82;;
35188;SDS011;21762;54.480;18.556;2022-12-29T06:58:30;11.10;;;7.65;;
35188;SDS011;21762;54.480;18.556;2022-12-29T07:00:59;14.32;;;8.23;;
35188;SDS011;21762;54.480;18.556;2022-12-29T07:03:27;11.95;;;7.10;;
35188;SDS011;21762;54.480;18.556;2022-12-29T07:05:56;12.25;;;7.10;;
35188;SDS011;21762;54.480;18.556;2022-12-29T07:08:25;16.85;;;8.27;;
35188;SDS011;21762;54.480;18.556;2022-12-29T07:10:55;9.52;;;6.93;;
35188;SDS011;21762;54.480;18.556;2022-12-29T07:13:24;17.92;;;8.98;;
35188;SDS011;21762;54.480;18.556;2022-12-29T07:15:52;13.35;;;8.10;;
35188;SDS011;21762;54.480;18.556;2022-12-29T07:18:21;12.77;;;7.43;;
35188;SDS011;21762;54.480;18.556;2022-12-29T07:20:49;13.98;;;8.13;;
35188;SDS011;21762;54.480;18.556;2022-12-29T07:23:18;13.05;;;7.07;;
35188;SDS011;21762;54.480;18.556;2022-12-29T07:25:46;11.82;;;7.28;;
35188;SDS011;21762;54.480;18.556;2022-12-29T07:28:16;13.48;;;6.78;;
35188;SDS011;21762;54.480;18.556;2022-12-29T07:30:45;14.80;;;7.95;;
35188;SDS011;21762;54.480;18.556;2022-12-29T07:33:14;10.82;;;6.65;;
35188;SDS011;21762;54.480;18.556;2022-12-29T07:35:43;16.02;;;8.15;;
35188;SDS011;21762;54.480;18.556;2022-12-29T07:38:11;12.85;;;7.55;;
35188;SDS011;21762;54.480;18.556;2022-12-29T07:40:40;12.50;;;7.30;;
35188;SDS011;21762;54.480;18.556;2022-12-29T07:43:08;12.73;;;8.02;;
35188;SDS011;21762;54.480;18.556;2022-12-29T07:45:50;14.00;;;8.43;;
35188;SDS011;21762;54.480;18.556;2022-12-29T07:48:22;19.70;;;8.80;;
35188;SDS011;21762;54.480;18.556;2022-12-29T07:50:50;14.60;;;7.38;;
35188;SDS011;21762;54.480;18.556;2022-12-29T07:53:20;13.85;;;7.88;;
35188;SDS011;21762;54.480;18.556;2022-12-29T07:55:49;13.63;;;7.50;;
35188;SDS011;21762;54.480;18.556;2022-12-29T07:58:17;12.13;;;7.53;;
35188;SDS011;21762;54.480;18.556;2022-12-29T08:00:46;14.73;;;7.45;;
35188;SDS011;21762;54.480;18.556;2022-12-29T08:03:16;13.63;;;6.63;;
35188;SDS011;21762;54.480;18.556;2022-12-29T08:05:44;13.55;;;7.20;;
35188;SDS011;21762;54.480;18.556;2022-12-29T08:08:13;11.88;;;7.22;;
35188;SDS011;21762;54.480;18.556;2022-12-29T08:10:41;9.93;;;7.25;;
35188;SDS011;21762;54.480;18.556;2022-12-29T08:13:10;10.48;;;6.93;;
35188;SDS011;21762;54.480;18.556;2022-12-29T08:15:39;13.70;;;7.18;;
35188;SDS011;21762;54.480;18.556;2022-12-29T08:18:08;9.80;;;5.85;;
35188;SDS011;21762;54.480;18.556;2022-12-29T08:20:38;11.95;;;7.43;;
35188;SDS011;21762;54.480;18.556;2022-12-29T08:23:06;11.52;;;6.50;;
35188;SDS011;21762;54.480;18.556;2022-12-29T08:25:35;9.88;;;6.30;;
35188;SDS011;21762;54.480;18.556;2022-12-29T08:28:03;14.13;;;6.43;;
35188;SDS011;21762;54.480;18.556;2022-12-29T08:30:32;12.65;;;6.55;;
35188;SDS011;21762;54.480;18.556;2022-12-29T08:33:00;11.95;;;7.70;;
35188;SDS011;21762;54.480;18.556;2022-12-29T08:35:28;9.02;;;6.10;;
35188;SDS011;21762;54.480;18.556;2022-12-29T08:37:58;11.25;;;6.72;;
35188;SDS011;21762;54.480;18.556;2022-12-29T08:40:27;11.40;;;6.72;;
35188;SDS011;21762;54.480;18.556;2022-12-29T08:42:55;9.63;;;6.32;;
35188;SDS011;21762;54.480;18.556;2022-12-29T08:45:24;8.65;;;6.32;;
35188;SDS011;21762;54.480;18.556;2022-12-29T08:47:52;10.13;;;6.47;;
35188;SDS011;21762;54.480;18.556;2022-12-29T08:50:20;11.40;;;6.70;;
35188;SDS011;21762;54.480;18.556;2022-12-29T08:52:49;11.02;;;6.10;;
35188;SDS011;21762;54.480;18.556;2022-12-29T08:55:19;11.55;;;6.97;;
35188;SDS011;21762;54.480;18.556;2022-12-29T08:57:48;11.75;;;6.43;;
35188;SDS011;21762;54.480;18.556;2022-12-29T09:00:18;13.10;;;6.80;;
35188;SDS011;21762;54.480;18.556;2022-12-29T09:02:47;8.90;;;6.82;;
35188;SDS011;21762;54.480;18.556;2022-12-29T09:05:16;11.63;;;7.03;;
35188;SDS011;21762;54.480;18.556;2022-12-29T09:07:44;11.23;;;6.30;;
35188;SDS011;21762;54.480;18.556;2022-12-29T09:10:13;8.65;;;5.50;;
35188;SDS011;21762;54.480;18.556;2022-12-29T09:12:43;9.48;;;6.63;;
35188;SDS011;21762;54.480;18.556;2022-12-29T09:15:11;12.07;;;6.47;;
35188;SDS011;21762;54.480;18.556;2022-12-29T09:17:40;9.25;;;6.00;;
35188;SDS011;21762;54.480;18.556;2022-12-29T09:20:12;8.43;;;5.70;;
35188;SDS011;21762;54.480;18.556;2022-12-29T09:22:42;8.40;;;5.68;;
35188;SDS011;21762;54.480;18.556;2022-12-29T09:25:11;10.57;;;5.72;;
35188;SDS011;21762;54.480;18.556;2022-12-29T09:27:40;8.70;;;6.18;;
35188;SDS011;21762;54.480;18.556;2022-12-29T09:30:11;9.73;;;6.13;;
35188;SDS011;21762;54.480;18.556;2022-12-29T09:32:41;10.38;;;5.05;;
35188;SDS011;21762;54.480;18.556;2022-12-29T09:35:10;10.23;;;5.88;;
35188;SDS011;21762;54.480;18.556;2022-12-29T09:37:39;9.30;;;6.28;;
35188;SDS011;21762;54.480;18.556;2022-12-29T09:40:09;11.60;;;5.72;;
35188;SDS011;21762;54.480;18.556;2022-12-29T09:43:01;10.23;;;6.18;;
35188;SDS011;21762;54.480;18.556;2022-12-29T09:45:41;9.85;;;6.07;;
35188;SDS011;21762;54.480;18.556;2022-12-29T09:48:13;8.90;;;5.80;;
35188;SDS011;21762;54.480;18.556;2022-12-29T09:50:45;9.50;;;5.63;;
35188;SDS011;21762;54.480;18.556;2022-12-29T09:53:17;9.20;;;5.72;;
35188;SDS011;21762;54.480;18.556;2022-12-29T09:55:49;9.68;;;6.10;;
35188;SDS011;21762;54.480;18.556;2022-12-29T09:58:21;8.15;;;5.38;;
35188;SDS011;21762;54.480;18.556;2022-12-29T10:00:54;8.63;;;5.82;;
35188;SDS011;21762;54.480;18.556;2022-12-29T10:03:27;7.72;;;5.68;;
35188;SDS011;21762;54.480;18.556;2022-12-29T10:06:04;11.38;;;7.13;;
35188;SDS011;21762;54.480;18.556;2022-12-29T10:08:39;10.52;;;5.60;;
35188;SDS011;21762;54.480;18.556;2022-12-29T10:11:13;10.85;;;6.05;;
35188;SDS011;21762;54.480;18.556;2022-12-29T10:13:52;9.70;;;6.25;;
35188;SDS011;21762;54.480;18.556;2022-12-29T10:16:31;9.93;;;5.75;;
35188;SDS011;21762;54.480;18.556;2022-12-29T10:19:16;10.27;;;5.35;;
35188;SDS011;21762;54.480;18.556;2022-12-29T10:22:04;9.38;;;5.90;;
35188;SDS011;21762;54.480;18.556;2022-12-29T10:24:38;13.00;;;5.85;;
35188;SDS011;21762;54.480;18.556;2022-12-29T10:27:09;8.88;;;5.65;;
35188;SDS011;21762;54.480;18.556;2022-12-29T10:29:40;11.57;;;5.47;;
35188;SDS011;21762;54.480;18.556;2022-12-29T10:32:13;10.05;;;5.68;;
35188;SDS011;21762;54.480;18.556;2022-12-29T10:34:49;10.75;;;5.55;;
35188;SDS011;21762;54.480;18.556;2022-12-29T10:37:37;9.07;;;5.47;;
35188;SDS011;21762;54.480;18.556;2022-12-29T10:40:15;15.35;;;5.50;;
35188;SDS011;21762;54.480;18.556;2022-12-29T10:42:50;8.13;;;5.28;;
35188;SDS011;21762;54.480;18.556;2022-12-29T10:45:21;8.75;;;4.70;;
35188;SDS011;21762;54.480;18.556;2022-12-29T10:47:55;8.20;;;5.37;;
35188;SDS011;21762;54.480;18.556;2022-12-29T10:50:27;8.25;;;5.30;;
35188;SDS011;21762;54.480;18.556;2022-12-29T10:52:57;7.35;;;4.93;;
35188;SDS011;21762;54.480;18.556;2022-12-29T10:55:28;8.38;;;5.43;;
35188;SDS011;21762;54.480;18.556;2022-12-29T10:58:00;9.20;;;5.32;;
35188;SDS011;21762;54.480;18.556;2022-12-29T11:00:31;7.15;;;4.72;;
35188;SDS011;21762;54.480;18.556;2022-12-29T11:03:09;8.43;;;4.97;;
35188;SDS011;21762;54.480;18.556;2022-12-29T11:05:52;7.28;;;4.18;;
35188;SDS011;21762;54.480;18.556;2022-12-29T11:08:23;8.52;;;4.50;;
35188;SDS011;21762;54.480;18.556;2022-12-29T11:11:00;6.50;;;4.20;;
35188;SDS011;21762;54.480;18.556;2022-12-29T11:13:29;10.10;;;4.32;;
35188;SDS011;21762;54.480;18.556;2022-12-29T11:16:04;7.28;;;4.68;;
35188;SDS011;21762;54.480;18.556;2022-12-29T11:18:35;7.65;;;4.50;;
35188;SDS011;21762;54.480;18.556;2022-12-29T11:23:35;10.27;;;4.63;;
35188;SDS011;21762;54.480;18.556;2022-12-29T11:29:11;7.65;;;4.35;;
35188;SDS011;21762;54.480;18.556;2022-12-29T11:31:46;7.65;;;4.40;;
35188;SDS011;21762;54.480;18.556;2022-12-29T11:34:18;9.43;;;4.30;;
35188;SDS011;21762;54.480;18.556;2022-12-29T11:36:48;7.35;;;4.32;;
35188;SDS011;21762;54.480;18.556;2022-12-29T11:39:30;11.27;;;4.80;;
35188;SDS011;21762;54.480;18.556;2022-12-29T11:42:01;6.43;;;3.80;;
35188;SDS011;21762;54.480;18.556;2022-12-29T11:44:34;6.32;;;3.80;;
35188;SDS011;21762;54.480;18.556;2022-12-29T11:47:04;5.97;;;3.92;;
35188;SDS011;21762;54.480;18.556;2022-12-29T11:49:41;8.05;;;4.47;;
35188;SDS011;21762;54.480;18.556;2022-12-29T11:52:20;6.60;;;3.90;;
35188;SDS011;21762;54.480;18.556;2022-12-29T11:54:50;8.43;;;3.90;;
35188;SDS011;21762;54.480;18.556;2022-12-29T11:57:18;5.95;;;3.60;;
35188;SDS011;21762;54.480;18.556;2022-12-29T11:59:50;7.53;;;3.67;;
35188;SDS011;21762;54.480;18.556;2022-12-29T12:02:38;9.10;;;4.30;;
35188;SDS011;21762;54.480;18.556;2022-12-29T12:05:13;6.45;;;4.50;;
35188;SDS011;21762;54.480;18.556;2022-12-29T12:07:50;4.68;;;3.42;;
35188;SDS011;21762;54.480;18.556;2022-12-29T12:10:23;6.78;;;4.07;;
35188;SDS011;21762;54.480;18.556;2022-12-29T12:12:57;3.75;;;3.20;;
35188;SDS011;21762;54.480;18.556;2022-12-29T12:15:31;6.35;;;3.53;;
35188;SDS011;21762;54.480;18.556;2022-12-29T12:18:10;7.90;;;4.70;;
35188;SDS011;21762;54.480;18.556;2022-12-29T12:20:48;6.50;;;4.03;;
35188;SDS011;21762;54.480;18.556;2022-12-29T12:23:21;6.80;;;3.97;;
35188;SDS011;21762;54.480;18.556;2022-12-29T12:25:59;8.40;;;3.90;;
35188;SDS011;21762;54.480;18.556;2022-12-29T12:28:34;8.57;;;4.55;;
35188;SDS011;21762;54.480;18.556;2022-12-29T12:31:06;8.82;;;4.00;;
35188;SDS011;21762;54.480;18.556;2022-12-29T12:33:45;7.05;;;3.80;;
35188;SDS011;21762;54.480;18.556;2022-12-29T12:36:26;8.88;;;3.95;;
35188;SDS011;21762;54.480;18.556;2022-12-29T12:39:12;6.55;;;3.60;;
35188;SDS011;21762;54.480;18.556;2022-12-29T12:41:48;5.95;;;4.20;;
35188;SDS011;21762;54.480;18.556;2022-12-29T12:44:27;9.30;;;3.95;;
35188;SDS011;21762;54.480;18.556;2022-12-29T12:47:04;6.55;;;3.72;;
35188;SDS011;21762;54.480;18.556;2022-12-29T12:50:05;7.07;;;4.30;;
35188;SDS011;21762;54.480;18.556;2022-12-29T12:52:48;7.35;;;4.68;;
35188;SDS011;21762;54.480;18.556;2022-12-29T12:55:33;7.80;;;4.30;;
35188;SDS011;21762;54.480;18.556;2022-12-29T12:58:11;8.43;;;4.55;;
35188;SDS011;21762;54.480;18.556;2022-12-29T13:00:48;5.20;;;3.70;;
35188;SDS011;21762;54.480;18.556;2022-12-29T13:03:21;8.20;;;4.63;;
35188;SDS011;21762;54.480;18.556;2022-12-29T13:06:04;9.80;;;4.38;;
35188;SDS011;21762;54.480;18.556;2022-12-29T13:08:48;8.38;;;4.38;;
35188;SDS011;21762;54.480;18.556;2022-12-29T13:11:42;9.32;;;4.15;;
35188;SDS011;21762;54.480;18.556;2022-12-29T13:14:24;8.40;;;3.95;;
35188;SDS011;21762;54.480;18.556;2022-12-29T13:17:03;12.02;;;4.40;;
35188;SDS011;21762;54.480;18.556;2022-12-29T13:19:36;8.13;;;4.10;;
35188;SDS011;21762;54.480;18.556;2022-12-29T13:22:09;8.57;;;4.65;;
35188;SDS011;21762;54.480;18.556;2022-12-29T13:24:44;5.95;;;3.90;;
35188;SDS011;21762;54.480;18.556;2022-12-29T13:27:20;5.68;;;3.38;;
35188;SDS011;21762;54.480;18.556;2022-12-29T13:29:56;7.57;;;4.38;;
35188;SDS011;21762;54.480;18.556;2022-12-29T13:32:32;6.60;;;4.32;;
35188;SDS011;21762;54.480;18.556;2022-12-29T13:35:10;7.22;;;3.80;;
35188;SDS011;21762;54.480;18.556;2022-12-29T13:37:47;7.00;;;4.30;;
35188;SDS011;21762;54.480;18.556;2022-12-29T13:40:21;17.60;;;5.40;;
35188;SDS011;21762;54.480;18.556;2022-12-29T13:42:51;8.90;;;4.78;;
35188;SDS011;21762;54.480;18.556;2022-12-29T13:45:21;8.07;;;4.55;;
35188;SDS011;21762;54.480;18.556;2022-12-29T13:47:53;9.40;;;4.70;;
35188;SDS011;21762;54.480;18.556;2022-12-29T13:50:25;10.43;;;5.13;;
35188;SDS011;21762;54.480;18.556;2022-12-29T13:52:56;11.18;;;4.57;;
35188;SDS011;21762;54.480;18.556;2022-12-29T13:55:32;10.13;;;5.00;;
35188;SDS011;21762;54.480;18.556;2022-12-29T13:58:07;9.30;;;4.97;;
35188;SDS011;21762;54.480;18.556;2022-12-29T14:00:40;10.18;;;4.22;;
35188;SDS011;21762;54.480;18.556;2022-12-29T14:03:20;8.57;;;4.68;;
35188;SDS011;21762;54.480;18.556;2022-12-29T14:06:12;8.55;;;4.90;;
35188;SDS011;21762;54.480;18.556;2022-12-29T14:08:43;11.90;;;5.80;;
35188;SDS011;21762;54.480;18.556;2022-12-29T14:11:15;8.93;;;5.53;;
35188;SDS011;21762;54.480;18.556;2022-12-29T14:13:45;9.05;;;4.80;;
35188;SDS011;21762;54.480;18.556;2022-12-29T14:16:24;7.00;;;4.60;;
35188;SDS011;21762;54.480;18.556;2022-12-29T14:18:55;7.13;;;4.43;;
35188;SDS011;21762;54.480;18.556;2022-12-29T14:21:31;6.25;;;4.60;;
35188;SDS011;21762;54.480;18.556;2022-12-29T14:33:13;11.73;;;5.10;;
35188;SDS011;21762;54.480;18.556;2022-12-29T14:38:17;7.68;;;4.70;;
35188;SDS011;21762;54.480;18.556;2022-12-29T14:43:53;7.78;;;4.82;;
35188;SDS011;21762;54.480;18.556;2022-12-29T14:46:24;9.52;;;5.38;;
35188;SDS011;21762;54.480;18.556;2022-12-29T14:48:56;9.57;;;5.32;;
35188;SDS011;21762;54.480;18.556;2022-12-29T14:51:29;11.13;;;6.18;;
35188;SDS011;21762;54.480;18.556;2022-12-29T14:53:59;8.63;;;5.00;;
35188;SDS011;21762;54.480;18.556;2022-12-29T14:56:28;10.35;;;5.28;;
35188;SDS011;21762;54.480;18.556;2022-12-29T14:58:59;9.40;;;5.47;;
35188;SDS011;21762;54.480;18.556;2022-12-29T15:01:36;10.80;;;5.68;;
35188;SDS011;21762;54.480;18.556;2022-12-29T15:04:19;9.02;;;5.00;;
35188;SDS011;21762;54.480;18.556;2022-12-29T15:06:50;7.32;;;4.57;;
35188;SDS011;21762;54.480;18.556;2022-12-29T15:09:24;7.90;;;4.50;;
35188;SDS011;21762;54.480;18.556;2022-12-29T15:11:55;9.18;;;5.25;;
35188;SDS011;21762;54.480;18.556;2022-12-29T15:14:34;8.55;;;4.80;;
35188;SDS011;21762;54.480;18.556;2022-12-29T15:17:09;10.82;;;5.38;;
35188;SDS011;21762;54.480;18.556;2022-12-29T15:19:40;11.27;;;5.13;;
35188;SDS011;21762;54.480;18.556;2022-12-29T15:22:08;9.95;;;6.30;;
35188;SDS011;21762;54.480;18.556;2022-12-29T15:24:40;10.15;;;5.30;;
35188;SDS011;21762;54.480;18.556;2022-12-29T15:27:10;10.48;;;5.25;;
35188;SDS011;21762;54.480;18.556;2022-12-29T15:29:42;11.88;;;4.97;;